Dixon, NM (87527)

5:07 PM MST on March 06, 2015 (GMT -0700)
First Arroyo | Change Station
CLOSE
Current Station
Personal Weather Station
Location: Dixon, NM
Elevation: 6037 ft
Nearby Weather Stations

Elev 6037 ft 36.20 °N, 105.90 °W | Updated 21 seconds ago

Clear
Clear
55.9 °F
Feels Like 55.9 °F
N
2.0
Wind Variable Wind from ENE

Today
High -- | Low -- °F
--% Chance of Precip.
Yesterday
High -- | Low -- °F
Precip. -- in
6:27 AM 6:02 PM
Full, 99% visible
Pressure 30.31 in
Visibility 10.0 miles
Clouds Clear
Dew Point 27 °F
Humidity 19%
Rainfall in
Snow Depth Not available.
UV 1 out of 12
Pollen 5.30 out of 12
Air Quality Not available.
Flu Activity Not available.
METAR KSKX 062355Z AUTO 00000KT 10SM CLR 10/M12 A3031 RMK AO1 10110 20040 401101090 57010

More Conditions Fewer Conditions

Pressure 30.31 in
Visibility 10.0 miles
Clouds Clear
Dew Point 27 °F
Humidity 19%
Rainfall in
Snow Depth Not available.
UV 1 out of 12
Pollen 5.30 out of 12
Air Quality Not available.
Flu Activity Not available.
METAR KSKX 062355Z AUTO 00000KT 10SM CLR 10/M12 A3031 RMK AO1 10110 20040 401101090 57010

More Conditions Fewer Conditions

10-Day Weather Forecast

Almanac

Astronomy

Mar. 06, 2015 Rise Set
Actual Time
Civil Twilight
Nautical Twilight
Astronomical Twilight
Moon
Length of Visible Light
Length of Day
Tomorrow will be .
, % of the Moon is Illuminated

Today's Extremes

State Highs State Lows

Community

WunderPhotos

Upload Photos

1,803,460 photos uploaded!

WunderBlogs® & News

Nearby

Air Quality

  Air Quality AQ Index Pollutant
Not available.

Snow Depth

Station Depth Elevation

Earthquake Activity

City Distance Mag. Time & Date
Minimum magnitude displayed is 2.5.

Coastal Water Temperatures

Place Temperature

Nearby Weather Stations